< < Back
Terminal Aerodrome Forecast


Current Version              Previous Versions:   1  2  3  4  5  6  7  8  9  

Terminal Aerodrome Forecast

981
FTUS42 KFFC 291900 AAA
TAFAHN
TAF AMD
KAHN 291951Z 2920/3018 31008KT P6SM SCT050
     FM300000 32005KT P6SM SKC
     FM301300 04006KT P6SM FEW030=

Latest METAR

595
SAUS70 KWBC 300700
MTRAHN
METAR KAHN 300651Z AUTO 32004KT 10SM CLR 18/13 A3001 RMK AO2 SLP157
T01780133


USA.gov is the U.S. government's official web portal to all federal, state and local government web resources and services.